Time;durP1;ratioP1;P1;durP2;ratioP2;P2;SDS_P1;SDS_P2;PMS_P1;PMS_P2;Temp;Humidity;BMP_temperature;BMP_pressure;BME280_temperature;BME280_humidity;BME280_pressure;Samples;Min_cycle;Max_cycle;Signal;HPM_P1;HPM_P2
2024/01/12 00:01:29;;;;;;;1999.90;999.90;;;0.90;99.90;;;;;;5042635;28;20049;-75
2024/01/12 00:03:55;;;;;;;1999.90;999.90;;;1.10;99.90;;;;;;5032691;28;20045;-74
2024/01/12 00:06:21;;;;;;;1999.90;999.90;;;1.10;99.90;;;;;;5035300;28;20033;-74
2024/01/12 00:08:47;;;;;;;1999.90;999.90;;;0.90;99.90;;;;;;5052571;28;20076;-74
2024/01/12 00:11:14;;;;;;;1999.90;999.90;;;0.90;99.90;;;;;;5052651;28;20033;-74
2024/01/12 00:13:40;;;;;;;1999.90;999.90;;;0.80;99.90;;;;;;5052403;28;20045;-75
2024/01/12 00:16:07;;;;;;;1999.90;999.90;;;0.70;99.90;;;;;;5043634;28;20045;-74
2024/01/12 00:18:33;;;;;;;1999.90;999.90;;;0.70;99.90;;;;;;5052712;28;20037;-74
2024/01/12 00:21:00;;;;;;;1999.90;999.90;;;0.70;99.90;;;;;;5046027;28;20037;-74
2024/01/12 00:23:26;;;;;;;1999.90;999.90;;;0.70;99.90;;;;;;5032045;28;20038;-74
2024/01/12 00:25:58;;;;;;;1999.90;999.90;;;0.70;99.90;;;;;;5032363;28;20042;-74
2024/01/12 00:28:27;;;;;;;1999.90;999.90;;;0.70;99.90;;;;;;5050466;28;20045;-74
2024/01/12 00:30:54;;;;;;;1999.90;999.90;;;0.70;99.90;;;;;;5046162;28;20044;-74
2024/01/12 00:33:21;;;;;;;1999.90;999.90;;;0.70;99.90;;;;;;5032354;28;20034;-75
2024/01/12 00:35:47;;;;;;;1999.90;999.90;;;0.70;99.90;;;;;;5031968;28;20518;-74
2024/01/12 00:38:14;;;;;;;1999.90;999.90;;;0.80;99.90;;;;;;5048519;28;20185;-74
2024/01/12 00:40:40;;;;;;;1999.90;999.90;;;0.80;99.90;;;;;;5047787;28;20033;-74
2024/01/12 00:43:07;;;;;;;1999.90;999.90;;;0.70;99.90;;;;;;5032538;28;20049;-73
2024/01/12 00:45:34;;;;;;;1999.90;999.90;;;0.70;99.90;;;;;;5031242;28;20519;-76
2024/01/12 00:48:00;;;;;;;1999.90;999.90;;;0.70;99.90;;;;;;5047004;28;20049;-72
2024/01/12 00:50:26;;;;;;;1999.90;999.90;;;0.80;99.90;;;;;;5049395;28;20047;-72
2024/01/12 00:52:52;;;;;;;1999.90;999.90;;;0.80;99.90;;;;;;5050783;28;20044;-71
2024/01/12 00:55:18;;;;;;;1999.90;999.90;;;0.80;99.90;;;;;;5051874;28;20459;-72
2024/01/12 00:57:44;;;;;;;1999.90;999.90;;;0.80;99.90;;;;;;5051709;28;20037;-72
2024/01/12 01:00:11;;;;;;;1999.90;999.90;;;0.70;99.90;;;;;;5051084;28;20044;-71
2024/01/12 01:02:37;;;;;;;1999.90;999.90;;;0.70;99.90;;;;;;5032157;28;20033;-72
2024/01/12 01:05:03;;;;;;;1999.90;999.90;;;0.50;99.90;;;;;;5031066;28;20029;-71
2024/01/12 01:07:30;;;;;;;1999.90;999.90;;;0.50;99.90;;;;;;5040689;28;20033;-71
2024/01/12 01:09:56;;;;;;;1999.90;999.90;;;0.40;99.90;;;;;;5050735;28;20044;-71
2024/01/12 01:12:23;;;;;;;1999.90;999.90;;;0.50;99.90;;;;;;5043093;28;20033;-71
2024/01/12 01:14:49;;;;;;;1999.90;999.90;;;0.40;99.90;;;;;;5052056;28;20033;-72
2024/01/12 01:17:15;;;;;;;1999.90;999.90;;;0.40;99.90;;;;;;5050296;28;20052;-71
2024/01/12 01:19:41;;;;;;;1999.90;999.90;;;0.40;99.90;;;;;;5052020;28;20032;-71
2024/01/12 01:22:07;;;;;;;1999.90;999.90;;;0.40;99.90;;;;;;5035045;28;20057;-71
2024/01/12 01:24:33;;;;;;;1999.90;999.90;;;0.40;99.90;;;;;;5032006;28;20029;-71
2024/01/12 01:26:59;;;;;;;1999.90;999.90;;;0.40;99.90;;;;;;5035045;28;20044;-71
2024/01/12 01:29:25;;;;;;;1999.90;999.90;;;0.30;99.90;;;;;;5051744;28;20442;-71
2024/01/12 01:31:51;;;;;;;1999.90;999.90;;;0.30;99.90;;;;;;5036939;28;20037;-71
2024/01/12 01:34:17;;;;;;;1999.90;999.90;;;0.30;99.90;;;;;;5031953;28;20387;-72
2024/01/12 01:36:43;;;;;;;1999.90;999.90;;;0.30;99.90;;;;;;5030655;28;20048;-71
2024/01/12 01:39:10;;;;;;;1999.90;999.90;;;0.30;99.90;;;;;;5051577;28;20033;-72
2024/01/12 01:41:36;;;;;;;1999.90;999.90;;;0.30;99.90;;;;;;5051503;28;20048;-71
2024/01/12 01:44:02;;;;;;;1999.90;999.90;;;0.30;99.90;;;;;;5051617;28;20049;-72
2024/01/12 01:46:28;;;;;;;1999.90;999.90;;;0.30;99.90;;;;;;5055001;28;20049;-71
2024/01/12 01:48:55;;;;;;;1999.90;999.90;;;0.30;99.90;;;;;;5054008;28;20108;-71
2024/01/12 01:51:21;;;;;;;1999.90;999.90;;;0.20;99.90;;;;;;5053651;28;20029;-71
2024/01/12 01:53:47;;;;;;;1999.90;999.90;;;0.20;99.90;;;;;;5037935;28;20029;-71
2024/01/12 01:56:13;;;;;;;1999.90;999.90;;;0.20;99.90;;;;;;5053125;28;20392;-76
2024/01/12 01:58:40;;;;;;;1999.90;999.90;;;0.10;99.90;;;;;;5053852;28;20040;-75
2024/01/12 02:01:06;;;;;;;1999.90;999.90;;;0.10;99.90;;;;;;5045740;28;20042;-75
2024/01/12 02:03:32;;;;;;;1999.90;999.90;;;0.00;99.90;;;;;;5034444;28;20026;-76
2024/01/12 02:05:58;;;;;;;1999.90;999.90;;;0.10;99.90;;;;;;5017396;28;20041;-76
2024/01/12 02:08:25;;;;;;;1999.90;999.90;;;0.10;99.90;;;;;;5049809;28;20029;-76
2024/01/12 02:10:52;;;;;;;1999.90;999.90;;;0.10;99.90;;;;;;5048336;28;20521;-76
2024/01/12 02:13:19;;;;;;;1999.90;999.90;;;0.10;99.90;;;;;;5053420;28;20052;-75
2024/01/12 02:15:45;;;;;;;1999.90;999.90;;;0.00;99.90;;;;;;5053284;28;20044;-75
2024/01/12 02:18:11;;;;;;;1999.90;999.90;;;0.00;99.90;;;;;;5036737;28;20037;-75
2024/01/12 02:20:38;;;;;;;1999.90;999.90;;;0.00;99.90;;;;;;5051017;28;20034;-76
2024/01/12 02:23:04;;;;;;;1999.90;999.90;;;0.00;99.90;;;;;;5034885;28;20052;-75
2024/01/12 02:25:30;;;;;;;1999.90;999.90;;;0.00;99.90;;;;;;5034899;28;20040;-75
2024/01/12 02:27:56;;;;;;;1999.90;999.90;;;0.00;99.90;;;;;;5027275;28;20032;-75
2024/01/12 02:30:22;;;;;;;1999.90;999.90;;;-0.10;99.90;;;;;;5052688;28;20040;-76
2024/01/12 02:32:48;;;;;;;1999.90;999.90;;;-0.10;99.90;;;;;;5053601;28;20487;-75
2024/01/12 02:35:14;;;;;;;1999.90;999.90;;;0.00;99.90;;;;;;5054407;28;20025;-75
2024/01/12 02:37:40;;;;;;;1999.90;999.90;;;-0.10;99.90;;;;;;5054745;28;20396;-75
2024/01/12 02:40:07;;;;;;;1999.90;999.90;;;-0.10;99.90;;;;;;5052686;28;20045;-75
2024/01/12 02:42:33;;;;;;;1999.90;999.90;;;-0.10;99.90;;;;;;5054353;28;20060;-76
2024/01/12 02:44:59;;;;;;;1999.90;999.90;;;-0.10;99.90;;;;;;5054388;28;20387;-75
2024/01/12 02:47:25;;;;;;;1999.90;999.90;;;-0.10;99.90;;;;;;5040158;28;20041;-75
2024/01/12 02:49:51;;;;;;;1999.90;999.90;;;-0.10;99.90;;;;;;5054350;28;20083;-75
2024/01/12 02:52:17;;;;;;;1999.90;999.90;;;-0.10;99.90;;;;;;5054296;28;20035;-75
2024/01/12 02:54:43;;;;;;;1999.90;999.90;;;-0.10;99.90;;;;;;5053751;28;20025;-75
2024/01/12 02:57:09;;;;;;;1999.90;999.90;;;-0.10;99.90;;;;;;5048919;28;20036;-71
2024/01/12 02:59:36;;;;;;;1999.90;999.90;;;-0.10;99.90;;;;;;5052480;28;20049;-71
2024/01/12 03:02:02;;;;;;;1999.90;999.90;;;-0.10;99.90;;;;;;5036889;28;20048;-71
2024/01/12 03:04:28;;;;;;;1999.90;999.90;;;-0.10;99.90;;;;;;5044985;28;20430;-71
2024/01/12 03:06:54;;;;;;;1999.90;999.90;;;0.00;99.90;;;;;;5043443;28;20036;-71
2024/01/12 03:09:22;;;;;;;1999.90;999.90;;;0.00;99.90;;;;;;5043840;28;20544;-71
2024/01/12 03:11:48;;;;;;;1999.90;999.90;;;0.00;99.90;;;;;;5052118;28;20041;-71
2024/01/12 03:14:14;;;;;;;1999.90;999.90;;;0.00;99.90;;;;;;5051289;28;20033;-71
2024/01/12 03:16:40;;;;;;;1999.90;999.90;;;0.00;99.90;;;;;;5051254;28;20484;-71
2024/01/12 03:19:06;;;;;;;1999.90;999.90;;;-0.10;99.90;;;;;;5052703;28;20043;-71
2024/01/12 03:21:32;;;;;;;1999.90;999.90;;;0.00;99.90;;;;;;5052123;28;20049;-71
2024/01/12 03:23:58;;;;;;;1999.90;999.90;;;0.00;99.90;;;;;;5051071;28;20032;-71
2024/01/12 03:26:24;;;;;;;1999.90;999.90;;;0.00;99.90;;;;;;5040381;28;20030;-71
2024/01/12 03:28:50;;;;;;;65.27;61.27;;;0.00;99.90;;;;;;5032199;28;20518;-71
2024/01/12 03:31:19;;;;;;;92.00;86.57;;;0.00;99.90;;;;;;5031352;28;20033;-71
2024/01/12 03:33:45;;;;;;;144.40;136.70;;;0.00;99.90;;;;;;5032406;28;20025;-71
2024/01/12 03:36:12;;;;;;;92.87;87.27;;;0.00;99.90;;;;;;5049479;28;20025;-71
2024/01/12 03:38:41;;;;;;;104.13;97.77;;;0.00;99.90;;;;;;5053444;28;20387;-71
2024/01/12 03:41:07;;;;;;;92.50;86.90;;;0.00;99.90;;;;;;5053093;28;20037;-71
2024/01/12 03:43:33;;;;;;;102.07;95.93;;;0.00;99.90;;;;;;5053398;28;20739;-71
2024/01/12 03:45:59;;;;;;;85.07;80.03;;;0.00;99.90;;;;;;5051981;28;20037;-71
2024/01/12 03:48:25;;;;;;;77.87;73.43;;;0.00;99.90;;;;;;5053382;28;20025;-71
2024/01/12 03:50:52;;;;;;;91.47;85.83;;;0.10;99.90;;;;;;5053033;28;20032;-71
2024/01/12 03:53:18;;;;;;;127.97;120.37;;;0.00;99.90;;;;;;5053006;28;20029;-71
2024/01/12 03:55:44;;;;;;;120.00;112.97;;;0.00;99.90;;;;;;5048022;28;20056;-71
2024/01/12 03:58:10;;;;;;;73.17;68.07;;;0.10;99.90;;;;;;5033111;28;20029;-71
2024/01/12 04:00:36;;;;;;;72.30;67.93;;;0.10;99.90;;;;;;5032537;28;20507;-76
2024/01/12 04:03:02;;;;;;;141.27;133.17;;;0.10;99.90;;;;;;5040958;28;20039;-76
2024/01/12 04:05:28;;;;;;;195.80;184.83;;;0.10;99.90;;;;;;5050433;28;20356;-76
2024/01/12 04:07:55;;;;;;;83.20;78.07;;;0.10;99.90;;;;;;5032027;28;20046;-76
2024/01/12 04:10:21;;;;;;;123.23;115.87;;;0.10;99.90;;;;;;5032841;28;20048;-76
2024/01/12 04:12:47;;;;;;;84.90;79.70;;;0.10;99.90;;;;;;5046784;28;20029;-76
2024/01/12 04:15:13;;;;;;;80.37;75.33;;;0.10;99.90;;;;;;5049777;28;20033;-75
2024/01/12 04:17:39;;;;;;;98.90;92.77;;;0.10;99.90;;;;;;5032880;28;20022;-76
2024/01/12 04:20:06;;;;;;;78.50;73.37;;;0.10;99.90;;;;;;5032783;28;20376;-76
2024/01/12 04:22:32;;;;;;;73.00;68.23;;;0.10;99.90;;;;;;5035551;28;20051;-76
2024/01/12 04:24:58;;;;;;;46.27;42.77;;;0.20;99.90;;;;;;5052289;28;20464;-76
2024/01/12 04:27:26;;;;;;;57.60;53.60;;;0.20;99.90;;;;;;5034035;28;20033;-76
2024/01/12 04:29:53;;;;;;;67.90;63.27;;;0.20;99.90;;;;;;5031801;28;20484;-75
2024/01/12 04:32:19;;;;;;;68.63;63.90;;;0.20;99.90;;;;;;5032060;28;20041;-76
2024/01/12 04:34:45;;;;;;;71.73;67.07;;;0.20;99.90;;;;;;5052739;28;20363;-74
2024/01/12 04:37:11;;;;;;;153.60;144.40;;;0.20;99.90;;;;;;5043372;28;20036;-74
2024/01/12 04:39:39;;;;;;;170.13;160.10;;;0.20;99.90;;;;;;5052739;28;20494;-74
2024/01/12 04:42:05;;;;;;;155.60;146.13;;;0.30;99.90;;;;;;5052059;28;20040;-74
2024/01/12 04:44:31;;;;;;;86.53;80.77;;;0.30;99.90;;;;;;5049815;28;20518;-74
2024/01/12 04:46:57;;;;;;;97.40;91.30;;;0.30;99.90;;;;;;5037078;28;20056;-74
2024/01/12 04:49:23;;;;;;;68.87;64.00;;;0.30;99.90;;;;;;5032482;28;20037;-74
2024/01/12 04:51:50;;;;;;;83.93;78.53;;;0.30;99.90;;;;;;5032456;28;20044;-74
2024/01/12 04:54:16;;;;;;;46.40;43.10;;;0.30;99.90;;;;;;5047724;28;20029;-74
2024/01/12 04:56:42;;;;;;;76.47;71.17;;;0.30;99.90;;;;;;5038705;28;20046;-74
2024/01/12 04:59:08;;;;;;;55.10;50.97;;;0.20;99.90;;;;;;5032135;28;20036;-74
2024/01/12 05:01:34;;;;;;;130.43;122.87;;;0.20;99.90;;;;;;5031595;28;20049;-74
2024/01/12 05:04:00;;;;;;;44.40;41.23;;;0.20;99.90;;;;;;5045205;28;20045;-72
2024/01/12 05:06:26;;;;;;;68.97;64.20;;;0.20;99.90;;;;;;5041174;28;20041;-72
2024/01/12 05:08:53;;;;;;;146.87;138.10;;;0.20;99.90;;;;;;5032404;28;20033;-72
2024/01/12 05:11:19;;;;;;;89.00;83.13;;;0.20;99.90;;;;;;5033742;28;20025;-72
2024/01/12 05:13:45;;;;;;;82.20;76.60;;;0.20;99.90;;;;;;5051451;28;20404;-72
2024/01/12 05:16:12;;;;;;;146.03;137.57;;;0.30;99.90;;;;;;5051147;28;20037;-72
2024/01/12 05:18:38;;;;;;;74.63;69.80;;;0.20;99.90;;;;;;5052004;28;20420;-72
2024/01/12 05:21:04;;;;;;;74.60;69.60;;;0.20;99.90;;;;;;5055092;28;20049;-72
2024/01/12 05:23:30;;;;;;;73.43;68.13;;;0.20;99.90;;;;;;5054729;28;20040;-72
2024/01/12 05:25:56;;;;;;;82.33;76.83;;;0.20;99.90;;;;;;5049127;28;20475;-72
2024/01/12 05:28:22;;;;;;;218.27;105.57;;;0.20;99.90;;;;;;5035747;28;20030;-72
2024/01/12 05:30:48;;;;;;;95.63;89.07;;;0.20;99.90;;;;;;5042827;28;20036;-72
2024/01/12 05:33:14;;;;;;;83.17;77.83;;;0.20;99.90;;;;;;5055359;28;20032;-72
2024/01/12 05:35:40;;;;;;;77.57;70.80;;;0.20;99.90;;;;;;5055584;28;20033;-72
2024/01/12 05:38:06;;;;;;;92.23;86.70;;;0.20;99.90;;;;;;5054381;28;20055;-72
2024/01/12 05:40:32;;;;;;;81.60;76.97;;;0.20;99.90;;;;;;5055316;28;20387;-72
2024/01/12 05:42:59;;;;;;;69.07;64.47;;;0.10;99.90;;;;;;5056954;28;20045;-72
2024/01/12 05:45:25;;;;;;;57.87;53.53;;;0.10;99.90;;;;;;5070572;28;20040;-72
2024/01/12 05:47:51;;;;;;;69.90;65.50;;;0.10;99.90;;;;;;5044906;28;20036;-72
2024/01/12 05:50:17;;;;;;;64.17;59.47;;;0.10;99.90;;;;;;5055353;28;20029;-72
2024/01/12 05:52:43;;;;;;;54.97;48.77;;;0.10;99.90;;;;;;5054120;28;20407;-72
2024/01/12 05:55:09;;;;;;;61.10;57.17;;;0.10;99.90;;;;;;5053731;28;20021;-72
2024/01/12 05:57:35;;;;;;;109.70;98.67;;;0.10;99.90;;;;;;5045695;28;20479;-72
2024/01/12 06:00:03;;;;;;;78.73;73.83;;;0.20;99.90;;;;;;5055226;28;20025;-72
2024/01/12 06:02:30;;;;;;;126.23;118.57;;;0.20;99.90;;;;;;5052139;28;20052;-72
2024/01/12 06:04:56;;;;;;;97.77;91.53;;;0.20;99.90;;;;;;5054384;28;20028;-72
2024/01/12 06:07:22;;;;;;;86.90;81.40;;;0.30;99.90;;;;;;5054543;28;20029;-72
2024/01/12 06:09:48;;;;;;;178.77;168.50;;;0.30;99.90;;;;;;5055112;28;20029;-72
2024/01/12 06:12:14;;;;;;;1982.60;322.27;;;0.30;99.90;;;;;;5054612;28;20021;-72
2024/01/12 06:14:40;;;;;;;140.07;131.57;;;0.30;99.90;;;;;;5054381;28;20037;-72
2024/01/12 06:17:08;;;;;;;87.37;81.30;;;0.40;99.90;;;;;;5038549;28;20060;-74
2024/01/12 06:19:34;;;;;;;91.10;84.97;;;0.40;99.90;;;;;;5034967;28;20041;-74
2024/01/12 06:22:00;;;;;;;75.83;70.80;;;0.50;99.90;;;;;;5035014;28;20047;-74
2024/01/12 06:24:26;;;;;;;66.57;62.00;;;0.50;99.90;;;;;;5051478;28;20028;-73
2024/01/12 06:26:52;;;;;;;190.23;68.80;;;0.50;99.90;;;;;;5044012;28;20048;-74
2024/01/12 06:29:18;;;;;;;69.40;64.30;;;0.60;99.90;;;;;;5054308;28;20029;-74
2024/01/12 06:31:44;;;;;;;45.97;42.27;;;0.70;99.90;;;;;;5041237;28;20033;-74
2024/01/12 06:34:10;;;;;;;51.73;48.37;;;0.70;99.90;;;;;;5044735;28;20032;-74
2024/01/12 06:36:42;;;;;;;41.57;37.80;;;0.70;99.90;;;;;;5045367;28;20029;-73
2024/01/12 06:39:08;;;;;;;108.77;101.93;;;0.70;99.90;;;;;;5053670;28;20033;-73
2024/01/12 06:41:34;;;;;;;124.10;116.77;;;0.80;99.90;;;;;;5054506;28;20067;-74
2024/01/12 06:44:01;;;;;;;107.30;70.83;;;0.80;99.90;;;;;;5052341;28;20045;-74
2024/01/12 06:46:27;;;;;;;188.40;177.47;;;0.80;99.90;;;;;;5052432;28;20067;-73
2024/01/12 06:48:53;;;;;;;109.43;102.73;;;0.90;99.90;;;;;;5053195;28;20062;-74
2024/01/12 06:51:22;;;;;;;87.77;81.90;;;0.90;99.90;;;;;;5044783;28;20025;-74
2024/01/12 06:53:48;;;;;;;122.27;114.77;;;1.00;99.90;;;;;;5037426;28;20041;-74
2024/01/12 06:56:21;;;;;;;113.17;106.27;;;1.00;99.90;;;;;;5045302;28;20049;-74
2024/01/12 06:58:47;;;;;;;193.70;182.73;;;1.00;99.90;;;;;;5034175;28;20057;-73
2024/01/12 07:01:19;;;;;;;83.07;78.00;;;1.00;99.90;;;;;;5033611;28;20385;-74
2024/01/12 07:03:45;;;;;;;106.93;99.80;;;1.10;99.90;;;;;;5035937;28;20056;-74
2024/01/12 07:06:11;;;;;;;64.40;59.90;;;1.10;99.90;;;;;;5044979;28;20037;-74
2024/01/12 07:08:37;;;;;;;94.50;88.90;;;1.10;99.90;;;;;;5046011;28;20029;-73
2024/01/12 07:11:05;;;;;;;72.27;67.73;;;1.20;99.90;;;;;;5046467;28;20029;-74
2024/01/12 07:13:31;;;;;;;158.97;150.20;;;1.20;99.90;;;;;;5033077;28;20048;-74
2024/01/12 07:15:57;;;;;;;61.50;57.37;;;1.20;99.90;;;;;;5046949;28;20033;-74
2024/01/12 07:18:23;;;;;;;77.03;72.43;;;1.20;99.90;;;;;;5034001;28;20423;-74
2024/01/12 07:20:49;;;;;;;111.17;104.40;;;1.30;99.90;;;;;;5032555;28;20025;-74
2024/01/12 07:23:15;;;;;;;68.10;63.40;;;1.30;99.90;;;;;;5033798;28;20360;-72
2024/01/12 07:25:41;;;;;;;81.87;76.43;;;1.30;99.90;;;;;;5038458;28;20024;-72
2024/01/12 07:28:07;;;;;;;77.40;72.43;;;1.30;99.90;;;;;;5053784;28;20040;-73
2024/01/12 07:30:33;;;;;;;109.13;102.97;;;1.40;99.90;;;;;;5053014;28;20033;-72
2024/01/12 07:32:59;;;;;;;166.83;157.57;;;1.40;99.90;;;;;;5053883;28;20029;-72
2024/01/12 07:35:26;;;;;;;89.00;83.53;;;1.40;99.90;;;;;;5051585;28;20047;-72
2024/01/12 07:37:52;;;;;;;92.40;86.63;;;1.40;99.90;;;;;;5052856;28;20402;-72
2024/01/12 07:40:18;;;;;;;168.07;158.30;;;1.40;99.90;;;;;;5053795;28;20025;-72
2024/01/12 07:42:44;;;;;;;164.63;155.33;;;1.40;99.90;;;;;;5052541;28;20056;-72
2024/01/12 07:45:13;;;;;;;79.67;74.77;;;1.40;99.90;;;;;;5052972;28;20070;-69
2024/01/12 07:47:39;;;;;;;56.70;52.57;;;1.60;99.90;;;;;;5053412;28;20025;-72
2024/01/12 07:50:06;;;;;;;71.80;67.03;;;1.60;99.90;;;;;;5051591;28;20403;-76
2024/01/12 07:52:32;;;;;;;104.53;98.43;;;1.60;99.90;;;;;;5052201;28;20033;-72
2024/01/12 07:54:58;;;;;;;94.07;88.40;;;1.60;99.90;;;;;;5053027;28;20040;-72
2024/01/12 07:57:24;;;;;;;108.23;101.53;;;1.60;99.90;;;;;;5053027;28;20069;-72
2024/01/12 07:59:52;;;;;;;149.97;141.23;;;1.60;99.90;;;;;;5053001;28;20029;-72
2024/01/12 08:02:18;;;;;;;145.57;137.07;;;1.60;99.90;;;;;;5052096;28;20049;-72
2024/01/12 08:04:44;;;;;;;118.10;111.03;;;1.60;99.90;;;;;;5052619;28;20041;-73
2024/01/12 08:07:10;;;;;;;78.77;73.77;;;1.70;99.90;;;;;;5049190;28;20523;-72
2024/01/12 08:09:36;;;;;;;85.63;80.23;;;1.70;99.90;;;;;;5051165;28;20044;-72
2024/01/12 08:12:03;;;;;;;73.53;68.40;;;1.80;99.90;;;;;;5052590;28;20085;-72
2024/01/12 08:14:29;;;;;;;102.00;95.67;;;1.80;99.90;;;;;;5052866;28;20025;-73
2024/01/12 08:16:55;;;;;;;139.07;131.07;;;1.80;99.90;;;;;;5051903;28;20088;-73
2024/01/12 08:19:21;;;;;;;118.43;111.60;;;1.80;99.90;;;;;;5051049;28;20033;-72
2024/01/12 08:21:47;;;;;;;126.87;119.43;;;1.90;99.90;;;;;;5051810;28;20049;-72
2024/01/12 08:24:13;;;;;;;135.53;127.83;;;1.90;99.90;;;;;;5049874;28;20040;-72
2024/01/12 08:26:39;;;;;;;86.10;80.57;;;1.90;99.90;;;;;;5051530;28;20056;-80
2024/01/12 08:29:05;;;;;;;118.23;111.23;;;2.00;99.90;;;;;;5050612;28;20207;-80
2024/01/12 08:31:32;;;;;;;152.87;144.07;;;2.00;99.90;;;;;;5051578;28;20041;-81
2024/01/12 08:33:58;;;;;;;67.57;62.97;;;2.00;99.90;;;;;;5032815;28;20045;-82
2024/01/12 08:36:24;;;;;;;141.60;133.30;;;2.10;99.90;;;;;;5050475;28;20040;-82
2024/01/12 08:38:50;;;;;;;74.03;69.10;;;2.10;99.90;;;;;;5051967;28;20036;-82
2024/01/12 08:41:17;;;;;;;91.93;86.53;;;2.10;99.90;;;;;;5051695;28;20045;-82
2024/01/12 08:43:43;;;;;;;62.03;58.10;;;2.10;99.90;;;;;;5050992;28;20041;-83
2024/01/12 08:46:09;;;;;;;49.80;46.50;;;2.10;99.90;;;;;;5051355;28;20040;-82
2024/01/12 08:48:35;;;;;;;52.87;49.13;;;2.20;99.90;;;;;;5052213;28;20025;-82
2024/01/12 08:51:01;;;;;;;68.17;63.67;;;2.20;99.90;;;;;;5032232;28;20044;-82
2024/01/12 08:53:27;;;;;;;119.27;111.60;;;2.20;99.90;;;;;;5052060;28;20045;-82
2024/01/12 08:55:54;;;;;;;49.50;45.97;;;2.30;99.90;;;;;;5051906;28;20029;-82
2024/01/12 08:58:20;;;;;;;120.07;113.10;;;2.30;99.90;;;;;;5051552;28;20254;-82
2024/01/12 09:00:46;;;;;;;96.00;90.17;;;2.30;99.90;;;;;;5050067;28;20518;-82
2024/01/12 09:03:12;;;;;;;96.37;90.50;;;2.30;99.90;;;;;;5049529;28;20052;-81
2024/01/12 09:05:38;;;;;;;163.67;154.67;;;2.40;99.90;;;;;;5050667;28;20028;-80
2024/01/12 09:08:05;;;;;;;168.53;159.20;;;2.40;99.90;;;;;;5050392;28;20029;-80
2024/01/12 09:10:31;;;;;;;104.63;98.47;;;2.50;99.90;;;;;;5051369;28;20036;-79
2024/01/12 09:12:57;;;;;;;89.20;84.00;;;2.60;99.90;;;;;;5047580;28;20478;-80
2024/01/12 09:15:23;;;;;;;211.67;198.80;;;2.60;99.90;;;;;;5049451;28;20048;-80
2024/01/12 09:17:50;;;;;;;241.07;226.83;;;2.60;99.90;;;;;;5048081;28;20039;-80
2024/01/12 09:20:18;;;;;;;228.20;214.83;;;2.70;99.90;;;;;;5050573;28;20036;-81
2024/01/12 09:22:45;;;;;;;124.67;117.50;;;2.70;99.90;;;;;;5050464;28;20033;-81
2024/01/12 09:25:12;;;;;;;159.27;150.20;;;2.70;99.90;;;;;;5033860;28;20387;-80
2024/01/12 09:27:38;;;;;;;172.70;162.57;;;2.80;99.90;;;;;;5050447;28;20029;-80
2024/01/12 09:30:05;;;;;;;305.57;287.53;;;2.80;99.90;;;;;;5051090;28;20379;-80
2024/01/12 09:32:31;;;;;;;268.27;253.10;;;2.80;99.90;;;;;;5051259;28;20025;-79
2024/01/12 09:34:57;;;;;;;133.70;125.73;;;2.90;99.90;;;;;;5050907;28;20041;-72
2024/01/12 09:37:23;;;;;;;160.03;150.73;;;2.90;99.90;;;;;;5051175;28;20025;-72
2024/01/12 09:39:50;;;;;;;265.10;250.23;;;2.90;99.90;;;;;;5050114;28;20032;-72
2024/01/12 09:42:17;;;;;;;336.13;315.73;;;3.00;99.90;;;;;;5049892;28;20419;-72
2024/01/12 09:44:47;;;;;;;254.73;239.87;;;3.00;99.90;;;;;;5048499;28;20044;-72
2024/01/12 09:47:13;;;;;;;169.37;159.73;;;3.10;99.90;;;;;;5050878;28;20040;-72
2024/01/12 09:49:39;;;;;;;189.87;178.77;;;3.10;99.90;;;;;;5049688;28;20025;-72
2024/01/12 09:52:07;;;;;;;333.27;312.63;;;3.10;99.90;;;;;;5029921;28;20029;-72
2024/01/12 09:54:36;;;;;;;272.17;256.40;;;3.20;99.90;;;;;;5048615;28;20041;-72
2024/01/12 09:57:04;;;;;;;341.30;320.67;;;3.20;99.90;;;;;;5051310;28;20151;-72
2024/01/12 09:59:30;;;;;;;121.50;114.50;;;3.20;99.90;;;;;;5034237;28;20037;-72
2024/01/12 10:01:57;;;;;;;168.47;158.93;;;3.20;99.90;;;;;;5050562;28;20049;-72
2024/01/12 10:04:23;;;;;;;159.47;150.83;;;3.30;99.90;;;;;;5050410;28;20524;-72
2024/01/12 10:06:49;;;;;;;130.37;122.80;;;3.30;99.90;;;;;;5053786;28;20044;-72
2024/01/12 10:09:17;;;;;;;117.07;110.27;;;3.40;99.90;;;;;;5055227;28;20044;-72
2024/01/12 10:11:43;;;;;;;108.00;101.70;;;3.40;99.90;;;;;;5054054;28;20514;-72
2024/01/12 10:14:09;;;;;;;126.57;118.93;;;3.40;99.90;;;;;;5054069;28;20037;-72
2024/01/12 10:16:35;;;;;;;97.23;91.60;;;3.40;99.90;;;;;;5045252;28;20396;-72
2024/01/12 10:19:01;;;;;;;124.63;117.73;;;3.50;99.90;;;;;;5051996;28;20464;-72
2024/01/12 10:21:27;;;;;;;139.03;131.37;;;3.50;99.90;;;;;;5054092;28;20049;-72
2024/01/12 10:24:03;;;;;;;102.97;96.97;;;3.50;99.90;;;;;;5054324;28;20035;-72
2024/01/12 10:26:29;;;;;;;146.83;138.17;;;3.50;99.90;;;;;;5053438;28;20047;-72
2024/01/12 10:28:55;;;;;;;73.57;69.50;;;3.60;99.90;;;;;;5051843;28;20053;-72
2024/01/12 10:31:21;;;;;;;104.50;98.50;;;3.60;99.90;;;;;;5049685;28;20040;-72
2024/01/12 10:33:47;;;;;;;86.13;80.83;;;3.60;99.90;;;;;;5053193;28;20041;-72
2024/01/12 10:36:21;;;;;;;125.10;117.80;;;3.60;99.90;;;;;;5053312;28;20025;-72
2024/01/12 10:38:48;;;;;;;99.83;94.00;;;3.70;99.90;;;;;;5037324;28;20049;-72
2024/01/12 10:41:14;;;;;;;96.60;91.13;;;3.70;99.90;;;;;;5051480;28;20020;-72
2024/01/12 10:43:40;;;;;;;124.60;116.90;;;3.80;99.90;;;;;;5052869;28;20052;-72
2024/01/12 10:46:22;;;;;;;88.33;82.73;;;3.80;99.90;;;;;;5049740;28;20033;-72
2024/01/12 10:48:55;;;;;;;88.80;83.97;;;3.80;99.90;;;;;;5037429;28;20048;-72
2024/01/12 10:51:21;;;;;;;129.93;122.80;;;3.80;99.90;;;;;;5035850;28;20021;-71
2024/01/12 10:53:55;;;;;;;137.03;129.27;;;3.80;99.90;;;;;;5053127;28;20059;-72
2024/01/12 10:56:21;;;;;;;115.37;108.77;;;3.80;99.90;;;;;;5035290;28;20017;-71
2024/01/12 10:58:48;;;;;;;99.93;94.47;;;3.80;99.90;;;;;;5052675;28;20089;-71
2024/01/12 11:01:14;;;;;;;123.20;116.17;;;3.90;99.90;;;;;;5033140;28;20033;-71
2024/01/12 11:03:40;;;;;;;92.47;86.93;;;3.90;99.90;;;;;;5052919;28;20048;-76
2024/01/12 11:06:07;;;;;;;128.67;120.87;;;3.90;99.90;;;;;;5052440;28;20021;-76
2024/01/12 11:08:33;;;;;;;159.57;150.47;;;3.90;99.90;;;;;;5036496;28;20033;-76
2024/01/12 11:10:59;;;;;;;141.77;133.63;;;4.00;99.90;;;;;;5050944;28;20021;-76
2024/01/12 11:13:26;;;;;;;98.30;92.20;;;4.00;99.90;;;;;;5034778;28;20056;-75
2024/01/12 11:15:52;;;;;;;97.43;91.20;;;4.10;99.90;;;;;;5051754;28;20029;-76
2024/01/12 11:18:19;;;;;;;139.50;131.77;;;4.10;99.90;;;;;;5051324;28;20373;-77
2024/01/12 11:20:45;;;;;;;153.10;144.63;;;4.10;99.90;;;;;;5051567;28;20056;-75
2024/01/12 11:23:11;;;;;;;168.80;158.60;;;4.10;99.90;;;;;;5052919;28;20040;-75
2024/01/12 11:25:37;;;;;;;168.90;159.20;;;4.20;99.90;;;;;;5053613;28;20021;-75
2024/01/12 11:28:04;;;;;;;116.13;109.43;;;4.20;99.90;;;;;;5051369;28;20036;-75
2024/01/12 11:30:30;;;;;;;111.23;104.00;;;4.20;99.90;;;;;;5050820;28;20400;-76
2024/01/12 11:33:00;;;;;;;209.83;197.77;;;4.20;99.90;;;;;;5052367;28;20103;-73
2024/01/12 11:35:29;;;;;;;150.63;141.97;;;4.20;99.90;;;;;;5052692;28;20045;-75
2024/01/12 11:38:10;;;;;;;168.77;159.27;;;4.20;99.90;;;;;;5051717;28;20276;-74
2024/01/12 11:40:36;;;;;;;84.83;79.77;;;4.20;99.90;;;;;;5049696;28;20030;-75
2024/01/12 11:43:03;;;;;;;107.67;101.77;;;4.20;99.90;;;;;;5035952;28;20052;-74
2024/01/12 11:45:29;;;;;;;183.50;173.30;;;4.20;99.90;;;;;;5050415;28;20041;-74
2024/01/12 11:47:55;;;;;;;159.97;150.90;;;4.20;99.90;;;;;;5051596;28;20025;-74
2024/01/12 11:50:24;;;;;;;275.47;259.20;;;4.30;99.90;;;;;;5051047;28;20036;-74
2024/01/12 11:52:56;;;;;;;197.73;186.32;;;4.30;99.90;;;;;;5049833;28;20053;-74
2024/01/12 11:55:22;;;;;;;161.17;151.87;;;4.30;99.90;;;;;;5051133;28;20041;-75
2024/01/12 11:57:48;;;;;;;226.13;212.93;;;4.40;99.90;;;;;;5052395;28;20037;-75
2024/01/12 12:00:15;;;;;;;110.30;104.03;;;4.40;99.90;;;;;;5032353;28;20402;-73
2024/01/12 12:02:41;;;;;;;165.40;155.80;;;4.40;99.90;;;;;;5032381;28;20045;-72
2024/01/12 12:05:11;;;;;;;99.83;94.17;;;4.40;99.90;;;;;;5040870;28;20068;-72
2024/01/12 12:07:38;;;;;;;92.87;86.97;;;4.40;99.90;;;;;;5051244;28;20052;-71
2024/01/12 12:10:05;;;;;;;106.47;100.57;;;4.30;99.90;;;;;;5050224;28;20025;-71
2024/01/12 12:12:31;;;;;;;204.03;192.63;;;4.40;99.90;;;;;;5045341;28;20040;-71
2024/01/12 12:15:07;;;;;;;149.43;140.70;;;4.40;99.90;;;;;;5050985;28;20044;-71
2024/01/12 12:17:46;;;;;;;113.63;107.33;;;4.40;99.90;;;;;;5048668;28;20395;-71